ASG weather

Ashburton Aerodrome
Canterbury Region, New Zealand

Public forecast

Using degrees Celsius for public forecast. Weather courtesy of forecast.io.

Closest aviation weather report (METAR) to Ashburton Aerodrome

Closest report is Christchurch International Airport, 40.4 nm (74.9 km) NE. Retrieved 2019/12/08 20:30 UTC (17 minutes ago):

NZCH 082030Z AUTO 01005KT 300V060 9999 NCD 14/08 Q1013 BECMG FM2100 20012KT

Closest aviation forecast (TAF) to Ashburton Aerodrome

Closest forecast is Christchurch International Airport, 40.4 nm (74.9 km) NE. Retrieved 2019/12/08 18:04 UTC (3 hours ago):

TAF NZCH 081701Z 0818/0918 VRB02KT 9999 FEW020 BECMG 0820/0822 20012KT BECMG 0904/0906 06008KT